Time;durP1;ratioP1;P1;durP2;ratioP2;P2;SDS_P1;SDS_P2;PMS_P1;PMS_P2;Temp;Humidity;BMP_temperature;BMP_pressure;BME280_temperature;BME280_humidity;BME280_pressure;Samples;Min_cycle;Max_cycle;Signal;HPM_P1;HPM_P2
2023/04/01 00:00:56;;;;;;;3.20;3.00;;;9.10;99.90;;;;;;5096518;28;20606;-70
2023/04/01 00:03:23;;;;;;;5.20;3.27;;;9.10;99.90;;;;;;5096410;28;20199;-70
2023/04/01 00:05:49;;;;;;;6.77;3.47;;;9.10;99.90;;;;;;5096098;28;20661;-70
2023/04/01 00:08:15;;;;;;;3.87;3.50;;;9.10;99.90;;;;;;5096006;28;20195;-70
2023/04/01 00:10:41;;;;;;;4.13;3.47;;;9.00;99.90;;;;;;5094499;28;20197;-70
2023/04/01 00:13:07;;;;;;;5.50;3.73;;;8.90;99.90;;;;;;5096191;28;20520;-70
2023/04/01 00:15:33;;;;;;;4.50;3.50;;;8.90;99.90;;;;;;5095847;28;20588;-70
2023/04/01 00:17:59;;;;;;;3.73;3.40;;;8.90;99.90;;;;;;5094519;28;20173;-71
2023/04/01 00:20:25;;;;;;;4.50;3.77;;;8.80;99.90;;;;;;5094478;28;20240;-71
2023/04/01 00:22:51;;;;;;;3.30;3.10;;;8.80;99.90;;;;;;5094221;28;20227;-70
2023/04/01 00:25:17;;;;;;;3.60;3.30;;;8.80;99.90;;;;;;5095284;28;20197;-71
2023/04/01 00:27:43;;;;;;;3.70;3.40;;;8.80;99.90;;;;;;5094286;28;20180;-70
2023/04/01 00:30:09;;;;;;;3.77;3.40;;;8.70;99.90;;;;;;5095359;28;20194;-70
2023/04/01 00:32:35;;;;;;;4.20;3.40;;;8.70;99.90;;;;;;5094292;28;20218;-70
2023/04/01 00:35:02;;;;;;;3.83;3.53;;;8.70;99.90;;;;;;5095206;28;20581;-70
2023/04/01 00:37:28;;;;;;;4.37;3.50;;;8.70;99.90;;;;;;5093945;28;20173;-71
2023/04/01 00:39:54;;;;;;;3.50;3.20;;;8.70;99.90;;;;;;5093758;28;20674;-71
2023/04/01 00:42:20;;;;;;;8.30;3.40;;;8.70;99.90;;;;;;5095264;28;20177;-71
2023/04/01 00:44:50;;;;;;;3.40;3.10;;;8.70;99.90;;;;;;5095405;28;20169;-71
2023/04/01 00:47:15;;;;;;;4.80;3.07;;;8.60;99.90;;;;;;5095308;28;20227;-71
2023/04/01 00:49:45;;;;;;;4.90;3.40;;;8.60;99.90;;;;;;5095126;28;20216;-71
2023/04/01 00:52:15;;;;;;;4.00;3.70;;;8.60;99.90;;;;;;5093847;28;20177;-71
2023/04/01 00:54:45;;;;;;;4.00;3.50;;;8.60;99.90;;;;;;5094978;28;20150;-71
2023/04/01 00:57:19;;;;;;;3.53;3.23;;;8.60;99.90;;;;;;5093533;28;20525;-73
2023/04/01 00:59:48;;;;;;;6.13;3.80;;;8.60;99.90;;;;;;5093210;28;20346;-71
2023/04/01 01:02:16;;;;;;;4.97;3.50;;;8.50;99.90;;;;;;5094818;28;20177;-71
2023/04/01 01:04:42;;;;;;;6.30;3.77;;;8.50;99.90;;;;;;5095569;28;20173;-71
2023/04/01 01:07:29;;;;;;;3.97;3.60;;;8.50;99.90;;;;;;5094673;28;20197;-71
2023/04/01 01:09:55;;;;;;;4.03;3.60;;;8.50;99.90;;;;;;5094708;28;20215;-71
2023/04/01 01:12:27;;;;;;;7.07;3.67;;;8.50;99.90;;;;;;5094670;28;20600;-71
2023/04/01 01:15:07;;;;;;;4.07;3.70;;;8.50;99.90;;;;;;5093506;28;20618;-71
2023/04/01 01:18:05;;;;;;;4.13;3.80;;;8.50;99.90;;;;;;5094677;28;20162;-71
2023/04/01 01:20:45;;;;;;;4.00;3.60;;;8.50;99.90;;;;;;5085822;28;20265;-71
2023/04/01 01:23:41;;;;;;;3.80;3.50;;;8.50;99.90;;;;;;5093322;28;20661;-71
2023/04/01 01:26:28;;;;;;;4.30;3.80;;;8.50;99.90;;;;;;5094306;28;20201;-70
2023/04/01 01:29:24;;;;;;;4.23;3.80;;;8.50;99.90;;;;;;5094121;28;20146;-71
2023/04/01 01:32:03;;;;;;;5.40;3.80;;;8.50;99.90;;;;;;5092895;28;20205;-71
2023/04/01 01:34:44;;;;;;;3.90;3.60;;;8.50;99.90;;;;;;5094391;28;20175;-71
2023/04/01 01:37:14;;;;;;;3.90;3.60;;;8.40;99.90;;;;;;5094208;28;20164;-71
2023/04/01 01:39:44;;;;;;;3.50;3.30;;;8.50;99.90;;;;;;5092607;28;20197;-70
2023/04/01 01:42:13;;;;;;;4.00;3.70;;;8.50;99.90;;;;;;5094001;28;20582;-71
2023/04/01 01:44:42;;;;;;;6.97;3.77;;;8.50;99.90;;;;;;5093974;28;20218;-71
2023/04/01 01:47:09;;;;;;;7.20;3.90;;;8.50;99.90;;;;;;5092674;28;20201;-68
2023/04/01 01:49:36;;;;;;;4.40;3.70;;;8.50;99.90;;;;;;5092750;28;20284;-69
2023/04/01 01:52:03;;;;;;;3.93;3.63;;;8.50;99.90;;;;;;5094200;28;20701;-71
2023/04/01 01:54:29;;;;;;;3.60;3.40;;;8.50;99.90;;;;;;5093793;28;20236;-71
2023/04/01 01:57:06;;;;;;;3.87;3.57;;;8.50;99.90;;;;;;5093905;28;20192;-71
2023/04/01 01:59:35;;;;;;;4.07;3.77;;;8.50;99.90;;;;;;5092597;28;20703;-71
2023/04/01 02:02:07;;;;;;;3.73;3.43;;;8.50;99.90;;;;;;5093782;28;20538;-71
2023/04/01 02:04:39;;;;;;;5.70;3.50;;;8.50;99.90;;;;;;5093614;28;20601;-71
2023/04/01 02:07:10;;;;;;;4.03;3.67;;;8.50;99.90;;;;;;5092162;28;20192;-71
2023/04/01 02:09:37;;;;;;;4.10;3.80;;;8.50;99.90;;;;;;5093130;28;20189;-71
2023/04/01 02:12:07;;;;;;;4.23;3.83;;;8.50;99.90;;;;;;5093175;28;20203;-71
2023/04/01 02:14:51;;;;;;;3.77;3.50;;;8.50;99.90;;;;;;5093492;28;20204;-71
2023/04/01 02:17:27;;;;;;;3.93;3.73;;;8.50;99.90;;;;;;5093487;28;20177;-71
2023/04/01 02:20:27;;;;;;;3.97;3.67;;;8.50;99.90;;;;;;5092193;28;20200;-71
2023/04/01 02:22:56;;;;;;;4.90;3.77;;;8.50;99.90;;;;;;5083183;28;20199;-71
2023/04/01 02:25:26;;;;;;;4.00;3.50;;;8.40;99.90;;;;;;5093267;28;20199;-71
2023/04/01 02:27:53;;;;;;;3.97;3.73;;;8.40;99.90;;;;;;5092187;28;20181;-71
2023/04/01 02:30:20;;;;;;;4.13;3.70;;;8.40;99.90;;;;;;5093264;28;20276;-71
2023/04/01 02:32:47;;;;;;;4.03;3.57;;;8.40;99.90;;;;;;5093529;28;20563;-71
2023/04/01 02:35:15;;;;;;;3.60;3.40;;;8.40;99.90;;;;;;5091985;28;20177;-71
2023/04/01 02:37:43;;;;;;;4.03;3.70;;;8.40;99.90;;;;;;5091858;28;20184;-70
2023/04/01 02:40:12;;;;;;;3.80;3.50;;;8.40;99.90;;;;;;5092964;28;20633;-71
2023/04/01 02:42:37;;;;;;;3.90;3.50;;;8.40;99.90;;;;;;5091841;28;20181;-71
2023/04/01 02:45:05;;;;;;;3.60;3.40;;;8.40;99.90;;;;;;5093066;28;20660;-70
2023/04/01 02:47:31;;;;;;;6.80;3.80;;;8.40;99.90;;;;;;5093450;28;20681;-70
2023/04/01 02:50:00;;;;;;;3.77;3.47;;;8.40;99.90;;;;;;5091712;28;20285;-70
2023/04/01 02:52:26;;;;;;;3.30;3.10;;;8.40;99.90;;;;;;5091799;28;20712;-71
2023/04/01 02:54:52;;;;;;;3.40;3.20;;;8.40;99.90;;;;;;5092877;28;20180;-71
2023/04/01 02:57:18;;;;;;;4.10;3.70;;;8.40;99.90;;;;;;5091664;28;20264;-71
2023/04/01 02:59:44;;;;;;;3.77;3.47;;;8.40;99.90;;;;;;5093384;28;20774;-71
2023/04/01 03:02:10;;;;;;;3.60;3.30;;;8.40;99.90;;;;;;5093039;28;20547;-71
2023/04/01 03:04:35;;;;;;;3.53;3.33;;;8.40;99.90;;;;;;5093282;28;20170;-71
2023/04/01 03:07:01;;;;;;;3.20;3.00;;;8.40;99.90;;;;;;5093241;28;20205;-71
2023/04/01 03:09:28;;;;;;;3.70;3.40;;;8.40;99.90;;;;;;5093126;28;20196;-71
2023/04/01 03:11:54;;;;;;;3.60;3.37;;;8.40;99.90;;;;;;5093099;28;20244;-71
2023/04/01 03:14:20;;;;;;;3.70;3.40;;;8.40;99.90;;;;;;5093226;28;20161;-71
2023/04/01 03:16:46;;;;;;;3.50;3.17;;;8.40;99.90;;;;;;5091620;28;20181;-71
2023/04/01 03:19:11;;;;;;;3.10;3.00;;;8.40;99.90;;;;;;5091472;28;20231;-71
2023/04/01 03:21:37;;;;;;;3.23;3.10;;;8.40;99.90;;;;;;5093900;28;20649;-71
2023/04/01 03:24:03;;;;;;;3.50;3.30;;;8.30;99.90;;;;;;5096419;28;20530;-71
2023/04/01 03:26:29;;;;;;;3.30;3.20;;;8.30;99.90;;;;;;5095155;28;20204;-71
2023/04/01 03:28:55;;;;;;;5.97;3.07;;;8.30;99.90;;;;;;5095157;28;20177;-70
2023/04/01 03:31:21;;;;;;;3.20;2.87;;;8.30;99.90;;;;;;5095183;28;20662;-71
2023/04/01 03:33:47;;;;;;;3.07;2.97;;;8.40;99.90;;;;;;5096464;28;20177;-71
2023/04/01 03:36:13;;;;;;;3.00;2.90;;;8.30;99.90;;;;;;5097144;28;20511;-71
2023/04/01 03:38:43;;;;;;;3.20;2.90;;;8.30;99.90;;;;;;5096450;28;20177;-71
2023/04/01 03:41:13;;;;;;;3.20;3.00;;;8.30;99.90;;;;;;5096711;28;20196;-70
2023/04/01 03:43:38;;;;;;;3.00;2.90;;;8.30;99.90;;;;;;5095302;28;20173;-71
2023/04/01 03:46:04;;;;;;;3.00;2.90;;;8.30;99.90;;;;;;5096393;28;20208;-71
2023/04/01 03:48:30;;;;;;;3.30;3.10;;;8.30;99.90;;;;;;5096506;28;20562;-71
2023/04/01 03:50:56;;;;;;;3.30;3.10;;;8.30;99.90;;;;;;5096148;28;20185;-71
2023/04/01 03:53:21;;;;;;;3.30;3.10;;;8.30;99.90;;;;;;5096200;28;20543;-71
2023/04/01 03:55:48;;;;;;;3.40;3.10;;;8.30;99.90;;;;;;5095980;28;20204;-71
2023/04/01 03:58:14;;;;;;;3.20;3.00;;;8.30;99.90;;;;;;5094519;28;20284;-71
2023/04/01 04:00:40;;;;;;;3.27;3.10;;;8.30;99.90;;;;;;5094509;28;20209;-71
2023/04/01 04:03:06;;;;;;;3.30;3.10;;;8.30;99.90;;;;;;5095934;28;20216;-71
2023/04/01 04:05:32;;;;;;;3.47;3.17;;;8.20;99.90;;;;;;5096000;28;20226;-71
2023/04/01 04:07:58;;;;;;;3.20;3.10;;;8.20;99.90;;;;;;5096332;28;20178;-71
2023/04/01 04:10:24;;;;;;;3.30;3.10;;;8.20;99.90;;;;;;5096246;28;20215;-71
2023/04/01 04:12:51;;;;;;;3.20;3.00;;;8.20;99.90;;;;;;5095916;28;20525;-71
2023/04/01 04:15:17;;;;;;;3.00;2.80;;;8.20;99.90;;;;;;5094388;28;20182;-71
2023/04/01 04:17:44;;;;;;;3.50;3.20;;;8.20;99.90;;;;;;5094308;28;20197;-71
2023/04/01 04:20:10;;;;;;;3.57;3.30;;;8.20;99.90;;;;;;5095514;28;20181;-71
2023/04/01 04:22:36;;;;;;;3.30;3.10;;;8.20;99.90;;;;;;5094261;28;20286;-71
2023/04/01 04:25:02;;;;;;;3.30;3.10;;;8.20;99.90;;;;;;5093895;28;20173;-71
2023/04/01 04:27:28;;;;;;;3.30;3.10;;;8.20;99.90;;;;;;5095362;28;20173;-71
2023/04/01 04:29:53;;;;;;;3.20;3.10;;;8.20;99.90;;;;;;5095479;28;20219;-70
2023/04/01 04:32:20;;;;;;;3.43;3.23;;;8.20;99.90;;;;;;5095282;28;20637;-71
2023/04/01 04:34:45;;;;;;;3.27;3.13;;;8.10;99.90;;;;;;5094570;28;20173;-71
2023/04/01 04:37:11;;;;;;;3.40;3.20;;;8.20;99.90;;;;;;5095246;28;20230;-71
2023/04/01 04:39:37;;;;;;;3.50;3.30;;;8.20;99.90;;;;;;5095024;28;20547;-71
2023/04/01 04:42:03;;;;;;;3.67;3.47;;;8.10;99.90;;;;;;5093903;28;20268;-71
2023/04/01 04:44:28;;;;;;;3.47;3.27;;;8.20;99.90;;;;;;5093879;28;20542;-71
2023/04/01 04:46:54;;;;;;;3.57;3.37;;;8.20;99.90;;;;;;5093670;28;20205;-71
2023/04/01 04:49:20;;;;;;;3.80;3.50;;;8.20;99.90;;;;;;5093874;28;20237;-71
2023/04/01 04:51:45;;;;;;;3.77;3.47;;;8.20;99.90;;;;;;5094874;28;20169;-70
2023/04/01 04:54:11;;;;;;;4.27;3.97;;;8.20;99.90;;;;;;5094601;28;20177;-71
2023/04/01 04:56:37;;;;;;;3.53;3.33;;;8.20;99.90;;;;;;5094832;28;20173;-71
2023/04/01 04:59:03;;;;;;;3.97;3.77;;;8.20;99.90;;;;;;5094657;28;20653;-71
2023/04/01 05:01:29;;;;;;;3.60;3.40;;;8.20;99.90;;;;;;5093374;28;20181;-70
2023/04/01 05:03:55;;;;;;;3.80;3.60;;;8.20;99.90;;;;;;5093402;28;20177;-71
2023/04/01 05:06:20;;;;;;;4.10;3.70;;;8.20;99.90;;;;;;5094500;28;20203;-71
2023/04/01 05:08:46;;;;;;;3.60;3.40;;;8.20;99.90;;;;;;5095109;28;20169;-71
2023/04/01 05:11:16;;;;;;;3.70;3.50;;;8.20;99.90;;;;;;5094343;28;20266;-71
2023/04/01 05:13:42;;;;;;;3.90;3.70;;;8.20;99.90;;;;;;5094420;28;20169;-70
2023/04/01 05:16:16;;;;;;;3.90;3.60;;;8.20;99.90;;;;;;5094719;28;20698;-69
2023/04/01 05:18:43;;;;;;;3.83;3.63;;;8.20;99.90;;;;;;5094535;28;20184;-68
2023/04/01 05:21:11;;;;;;;3.87;3.67;;;8.20;99.90;;;;;;5093369;28;20204;-68
2023/04/01 05:23:36;;;;;;;3.80;3.60;;;8.20;99.90;;;;;;5094829;28;20233;-71
2023/04/01 05:26:13;;;;;;;4.30;3.97;;;8.20;99.90;;;;;;5092908;28;20200;-70
2023/04/01 05:28:40;;;;;;;4.20;3.93;;;8.20;99.90;;;;;;5093183;28;20256;-73
2023/04/01 05:31:07;;;;;;;4.23;3.97;;;8.20;99.90;;;;;;5093131;28;20231;-73
2023/04/01 05:33:33;;;;;;;4.50;4.10;;;8.20;99.90;;;;;;5093043;28;20268;-73
2023/04/01 05:36:14;;;;;;;4.50;4.20;;;8.20;99.90;;;;;;5094404;28;20649;-72
2023/04/01 05:38:40;;;;;;;4.30;4.00;;;8.20;99.90;;;;;;5094611;28;20169;-72
2023/04/01 05:41:05;;;;;;;4.33;4.03;;;8.20;99.90;;;;;;5092601;28;20245;-73
2023/04/01 05:43:35;;;;;;;4.97;4.47;;;8.20;99.90;;;;;;5094152;28;20173;-72
2023/04/01 05:46:00;;;;;;;4.23;3.93;;;8.20;99.90;;;;;;5093432;28;20253;-72
2023/04/01 05:48:26;;;;;;;4.50;4.20;;;8.20;99.90;;;;;;5094924;28;20630;-66
2023/04/01 05:50:52;;;;;;;4.67;4.27;;;8.30;99.90;;;;;;5093200;28;20197;-67
2023/04/01 05:53:17;;;;;;;4.30;4.00;;;8.30;99.90;;;;;;5095257;28;20192;-67
2023/04/01 05:55:43;;;;;;;4.80;4.17;;;8.30;99.90;;;;;;5097247;28;20248;-67
2023/04/01 05:58:09;;;;;;;4.47;4.07;;;8.30;99.90;;;;;;5094264;28;20259;-68
2023/04/01 06:00:35;;;;;;;4.60;4.20;;;8.30;99.90;;;;;;5093797;28;20197;-69
2023/04/01 06:03:01;;;;;;;4.50;4.20;;;8.30;99.90;;;;;;5095182;28;20696;-69
2023/04/01 06:05:37;;;;;;;4.10;3.80;;;8.30;99.90;;;;;;5093827;28;20236;-69
2023/04/01 06:08:10;;;;;;;4.43;4.13;;;8.40;99.90;;;;;;5096077;28;20163;-73
2023/04/01 06:10:50;;;;;;;4.50;4.20;;;8.40;99.90;;;;;;5092648;28;20201;-68
2023/04/01 06:13:31;;;;;;;4.90;4.20;;;8.40;99.90;;;;;;5093668;28;20658;-72
2023/04/01 06:16:16;;;;;;;4.97;4.57;;;8.40;99.90;;;;;;5095755;28;20165;-75
2023/04/01 06:19:02;;;;;;;5.40;4.10;;;8.40;99.90;;;;;;5093650;28;20170;-75
2023/04/01 06:21:34;;;;;;;4.43;4.10;;;8.40;99.90;;;;;;5092545;28;20188;-74
2023/04/01 06:24:28;;;;;;;4.63;4.33;;;8.50;99.90;;;;;;5093257;28;20545;-67
2023/04/01 06:27:13;;;;;;;4.83;4.23;;;8.50;99.90;;;;;;5093909;28;20249;-72
2023/04/01 06:30:18;;;;;;;4.20;3.90;;;8.50;99.90;;;;;;5093411;28;20189;-69
2023/04/01 06:33:02;;;;;;;4.50;4.03;;;8.50;99.90;;;;;;5085387;28;20250;-69
2023/04/01 06:35:45;;;;;;;4.53;4.13;;;8.50;99.90;;;;;;5092645;28;20232;-74
2023/04/01 06:38:33;;;;;;;4.40;4.03;;;8.50;99.90;;;;;;5092727;28;20165;-73
2023/04/01 06:41:05;;;;;;;4.70;4.30;;;8.50;99.90;;;;;;5092824;28;20203;-75
2023/04/01 06:43:58;;;;;;;4.20;3.90;;;8.50;99.90;;;;;;5094483;28;20181;-77
2023/04/01 06:46:24;;;;;;;4.47;3.80;;;8.50;99.90;;;;;;5092430;28;20219;-71
2023/04/01 06:49:27;;;;;;;4.33;4.03;;;8.50;99.90;;;;;;5093816;28;20161;-69
2023/04/01 06:52:11;;;;;;;4.17;3.87;;;8.60;99.90;;;;;;5093851;28;20634;-69
2023/04/01 06:54:42;;;;;;;4.30;4.00;;;8.60;99.90;;;;;;5091939;28;20206;-69
2023/04/01 06:57:34;;;;;;;4.20;3.90;;;8.60;99.90;;;;;;5093874;28;20184;-69
2023/04/01 07:00:04;;;;;;;4.10;3.80;;;8.60;99.90;;;;;;5094464;28;20213;-69
2023/04/01 07:02:43;;;;;;;4.23;3.93;;;8.60;99.90;;;;;;5097120;28;20540;-69
2023/04/01 07:05:11;;;;;;;4.27;3.87;;;8.70;99.90;;;;;;5097089;28;20165;-69
2023/04/01 07:07:48;;;;;;;4.83;4.00;;;8.70;99.90;;;;;;5098733;28;20774;-67
2023/04/01 07:10:32;;;;;;;3.60;3.40;;;8.80;99.90;;;;;;5099035;28;20193;-69
2023/04/01 07:13:09;;;;;;;4.10;3.80;;;8.80;99.90;;;;;;5098049;28;20157;-72
2023/04/01 07:15:41;;;;;;;3.70;3.50;;;8.80;99.90;;;;;;5096230;28;20208;-69
2023/04/01 07:18:49;;;;;;;3.57;3.37;;;8.80;99.90;;;;;;5097109;28;20190;-69
2023/04/01 07:21:29;;;;;;;4.17;3.83;;;8.80;99.90;;;;;;5089244;28;20213;-72
2023/04/01 07:24:00;;;;;;;3.73;3.50;;;8.80;99.90;;;;;;5095477;28;20283;-72
2023/04/01 07:26:26;;;;;;;4.10;3.80;;;8.80;99.90;;;;;;5096418;28;20193;-67
2023/04/01 07:28:53;;;;;;;3.70;3.40;;;8.90;99.90;;;;;;5096321;28;20173;-71
2023/04/01 07:31:28;;;;;;;3.90;3.60;;;8.80;99.90;;;;;;5096918;28;20185;-72
2023/04/01 07:34:01;;;;;;;4.20;3.90;;;8.80;99.90;;;;;;5095215;28;20176;-72
2023/04/01 07:36:31;;;;;;;3.93;3.70;;;8.80;99.90;;;;;;5096607;28;20192;-72
2023/04/01 07:39:19;;;;;;;4.63;3.83;;;8.90;99.90;;;;;;5096353;28;20195;-72
2023/04/01 07:41:51;;;;;;;4.30;3.90;;;8.90;99.90;;;;;;5095183;28;20544;-72
2023/04/01 07:44:19;;;;;;;4.23;3.87;;;8.90;99.90;;;;;;5096320;28;20177;-72
2023/04/01 07:46:57;;;;;;;3.83;3.63;;;8.90;99.90;;;;;;5094969;28;20197;-72
2023/04/01 07:49:38;;;;;;;4.23;3.83;;;8.90;99.90;;;;;;5094983;28;20208;-72
2023/04/01 07:52:09;;;;;;;3.83;3.60;;;9.00;99.90;;;;;;5094979;28;20173;-72
2023/04/01 07:54:56;;;;;;;4.23;3.93;;;8.90;99.90;;;;;;5096131;28;20661;-72
2023/04/01 07:57:29;;;;;;;3.97;3.67;;;8.90;99.90;;;;;;5096558;28;20170;-72
2023/04/01 08:00:24;;;;;;;4.13;3.70;;;8.90;99.90;;;;;;5096054;28;20197;-72
2023/04/01 08:02:58;;;;;;;4.27;3.87;;;8.90;99.90;;;;;;5095368;28;20277;-72
2023/04/01 08:05:29;;;;;;;4.10;3.80;;;8.90;99.90;;;;;;5094639;28;20232;-72
2023/04/01 08:08:37;;;;;;;4.03;3.73;;;8.90;99.90;;;;;;5093788;28;20538;-72
2023/04/01 08:11:28;;;;;;;4.50;4.07;;;8.90;99.90;;;;;;5078518;28;20201;-71
2023/04/01 08:14:23;;;;;;;5.57;4.30;;;8.90;99.90;;;;;;5094485;28;20279;-72
2023/04/01 08:17:02;;;;;;;5.07;4.33;;;9.00;99.90;;;;;;5059271;28;20244;-72
2023/04/01 08:20:15;;;;;;;4.13;3.83;;;9.00;99.90;;;;;;5095663;28;20657;-72
2023/04/01 08:22:45;;;;;;;4.40;4.00;;;9.00;99.90;;;;;;5056620;28;20586;-72
2023/04/01 08:25:20;;;;;;;4.10;3.80;;;9.00;99.90;;;;;;5074841;28;20272;-72
2023/04/01 08:27:52;;;;;;;4.40;4.00;;;9.10;99.90;;;;;;5074238;28;20545;-72
2023/04/01 08:30:30;;;;;;;4.17;3.87;;;9.00;99.90;;;;;;5075285;28;20201;-72
2023/04/01 08:32:59;;;;;;;4.37;4.07;;;9.00;99.90;;;;;;5073939;28;20205;-69
2023/04/01 08:35:36;;;;;;;4.23;3.90;;;9.00;99.90;;;;;;5075128;28;20548;-69
2023/04/01 08:38:10;;;;;;;4.90;4.37;;;9.00;99.90;;;;;;5073887;28;20188;-69
2023/04/01 08:40:57;;;;;;;4.20;3.80;;;9.10;99.90;;;;;;5075072;28;20566;-69
2023/04/01 08:43:49;;;;;;;4.07;3.77;;;9.10;99.90;;;;;;5075312;28;20190;-69
2023/04/01 08:46:34;;;;;;;4.00;3.70;;;9.10;99.90;;;;;;5075926;28;20540;-69
2023/04/01 08:49:38;;;;;;;4.50;4.10;;;9.10;99.90;;;;;;5073389;28;20260;-69
2023/04/01 08:52:20;;;;;;;4.13;3.83;;;9.20;99.90;;;;;;5054233;28;20189;-69
2023/04/01 08:54:53;;;;;;;4.27;3.93;;;9.20;99.90;;;;;;5055691;28;20174;-69
2023/04/01 08:57:45;;;;;;;5.13;3.73;;;9.30;99.90;;;;;;5073469;28;20650;-69
2023/04/01 09:00:37;;;;;;;4.43;3.83;;;9.30;99.90;;;;;;5073097;28;20284;-69
2023/04/01 09:03:09;;;;;;;4.30;4.00;;;9.40;99.90;;;;;;5074615;28;20162;-69
2023/04/01 09:05:59;;;;;;;4.40;4.10;;;9.40;99.90;;;;;;5073056;28;20296;-69
2023/04/01 09:08:41;;;;;;;4.40;4.03;;;9.40;99.90;;;;;;5073064;28;20235;-69
2023/04/01 09:11:19;;;;;;;4.57;4.17;;;9.30;99.90;;;;;;5074090;28;20247;-69
2023/04/01 09:14:02;;;;;;;5.17;4.77;;;9.20;99.90;;;;;;5072940;28;20235;-69
2023/04/01 09:16:52;;;;;;;4.77;4.40;;;9.20;99.90;;;;;;5074492;28;20173;-69
2023/04/01 09:19:21;;;;;;;6.83;6.23;;;9.20;99.90;;;;;;5073884;28;20200;-69
2023/04/01 09:22:08;;;;;;;6.20;4.37;;;9.20;99.90;;;;;;5074099;28;20173;-69
2023/04/01 09:24:59;;;;;;;4.17;3.87;;;9.20;99.90;;;;;;5072827;28;20268;-69
2023/04/01 09:27:25;;;;;;;5.53;4.80;;;9.20;99.90;;;;;;5072607;28;20202;-69
2023/04/01 09:29:50;;;;;;;6.07;5.57;;;9.20;99.90;;;;;;5073959;28;20722;-69
2023/04/01 09:32:54;;;;;;;7.67;6.87;;;9.10;99.90;;;;;;5073788;28;20174;-69
2023/04/01 09:35:38;;;;;;;5.90;5.40;;;9.20;99.90;;;;;;5074178;28;20173;-67
2023/04/01 09:38:16;;;;;;;5.47;4.60;;;9.20;99.90;;;;;;5072603;28;20239;-67
2023/04/01 09:41:14;;;;;;;4.77;4.37;;;9.20;99.90;;;;;;5073814;28;20597;-67
2023/04/01 09:44:04;;;;;;;5.20;4.70;;;9.20;99.90;;;;;;5074413;28;20162;-67
2023/04/01 09:46:35;;;;;;;4.60;4.20;;;9.10;99.90;;;;;;5073977;28;20194;-67
2023/04/01 09:49:29;;;;;;;4.93;4.53;;;9.20;99.90;;;;;;5073909;28;20170;-67
2023/04/01 09:52:01;;;;;;;4.90;4.50;;;9.10;99.90;;;;;;5072422;28;20178;-67
2023/04/01 09:54:49;;;;;;;5.50;5.00;;;9.10;99.90;;;;;;5072349;28;20170;-67
2023/04/01 09:57:36;;;;;;;5.10;4.60;;;9.20;99.90;;;;;;5073332;28;20184;-68
2023/04/01 10:00:21;;;;;;;5.00;4.50;;;9.20;99.90;;;;;;5072172;28;20248;-67
2023/04/01 10:02:58;;;;;;;5.37;4.87;;;9.30;99.90;;;;;;5072253;28;20521;-67
2023/04/01 10:06:01;;;;;;;5.00;4.50;;;9.30;99.90;;;;;;5073356;28;20197;-67
2023/04/01 10:08:52;;;;;;;5.43;4.57;;;9.30;99.90;;;;;;5072095;28;20642;-67
2023/04/01 10:11:21;;;;;;;5.17;4.67;;;9.30;99.90;;;;;;5071981;28;20178;-67
2023/04/01 10:14:08;;;;;;;6.37;5.07;;;9.30;99.90;;;;;;5072087;28;20243;-67
2023/04/01 10:17:07;;;;;;;6.70;5.23;;;9.20;99.90;;;;;;5073600;28;20179;-67
2023/04/01 10:20:10;;;;;;;7.60;5.63;;;9.20;99.90;;;;;;5073468;28;20193;-67
2023/04/01 10:23:21;;;;;;;7.50;5.90;;;9.20;99.90;;;;;;5079556;28;20641;-67
2023/04/01 10:26:08;;;;;;;8.17;5.90;;;9.20;99.90;;;;;;5092535;28;20220;-67
2023/04/01 10:28:47;;;;;;;8.20;6.60;;;9.30;99.90;;;;;;5092224;28;20230;-67
2023/04/01 10:31:33;;;;;;;8.80;6.80;;;9.20;99.90;;;;;;5092982;28;20208;-69
2023/04/01 10:34:18;;;;;;;8.80;7.40;;;9.30;99.90;;;;;;5093445;28;20218;-69
2023/04/01 10:36:57;;;;;;;10.97;7.10;;;9.20;99.90;;;;;;5093406;28;20158;-69
2023/04/01 10:39:56;;;;;;;10.20;6.83;;;9.30;99.90;;;;;;5093454;28;20196;-70
2023/04/01 10:43:04;;;;;;;11.03;7.80;;;9.30;99.90;;;;;;5093394;28;20222;-69
2023/04/01 10:45:52;;;;;;;12.10;9.17;;;9.30;99.90;;;;;;5091989;28;20169;-69
2023/04/01 10:48:34;;;;;;;11.60;7.83;;;9.40;99.90;;;;;;5093314;28;20745;-69
2023/04/01 10:51:32;;;;;;;13.97;9.77;;;9.40;99.90;;;;;;5093423;28;20250;-69
2023/04/01 10:54:22;;;;;;;12.47;8.97;;;9.30;99.90;;;;;;5093519;28;20216;-69
2023/04/01 10:57:12;;;;;;;13.30;10.10;;;9.40;99.90;;;;;;5092402;28;20169;-69
2023/04/01 10:59:48;;;;;;;13.73;10.07;;;9.40;99.90;;;;;;5093923;28;20213;-69
2023/04/01 11:02:20;;;;;;;13.37;9.63;;;9.50;99.90;;;;;;5097032;28;20165;-69
2023/04/01 11:05:39;;;;;;;14.97;10.17;;;9.50;99.90;;;;;;5095338;28;20181;-69
2023/04/01 11:08:25;;;;;;;13.47;10.13;;;9.50;99.90;;;;;;5095896;28;20162;-69
2023/04/01 11:11:11;;;;;;;14.73;9.80;;;9.50;99.90;;;;;;5092598;28;20240;-69
2023/04/01 11:14:08;;;;;;;15.87;10.47;;;9.60;99.90;;;;;;5092739;28;20169;-69
2023/04/01 11:17:11;;;;;;;15.13;10.90;;;9.50;99.90;;;;;;5093685;28;20174;-69
2023/04/01 11:19:42;;;;;;;13.87;10.00;;;9.50;99.90;;;;;;5093323;28;20596;-69
2023/04/01 11:22:14;;;;;;;15.10;9.63;;;9.60;99.90;;;;;;5092069;28;20205;-69
2023/04/01 11:25:13;;;;;;;14.10;9.93;;;9.60;99.90;;;;;;5092094;28;20623;-69
2023/04/01 11:28:09;;;;;;;15.47;10.30;;;9.60;99.90;;;;;;5093499;28;20520;-69
2023/04/01 11:31:12;;;;;;;15.03;9.97;;;9.60;99.90;;;;;;5091599;28;20280;-69
2023/04/01 11:34:01;;;;;;;13.97;9.30;;;9.60;99.90;;;;;;5093016;28;20162;-69
2023/04/01 11:37:00;;;;;;;11.63;8.53;;;9.60;99.90;;;;;;5092945;28;20207;-69
2023/04/01 11:39:36;;;;;;;11.83;8.70;;;9.60;99.90;;;;;;5091748;28;20567;-71
2023/04/01 11:42:24;;;;;;;10.73;8.57;;;9.50;99.90;;;;;;5093722;28;20568;-69
2023/04/01 11:45:17;;;;;;;12.63;8.37;;;9.50;99.90;;;;;;5097099;28;20153;-69
2023/04/01 11:48:14;;;;;;;11.30;7.97;;;9.60;99.90;;;;;;5095560;28;20169;-69
2023/04/01 11:50:49;;;;;;;12.00;8.60;;;9.60;99.90;;;;;;5096548;28;20232;-69
2023/04/01 11:53:33;;;;;;;7.70;6.37;;;9.50;99.90;;;;;;5096257;28;20183;-69
2023/04/01 11:56:17;;;;;;;8.97;7.00;;;9.50;99.90;;;;;;5096269;28;20161;-69
2023/04/01 11:58:57;;;;;;;9.53;6.77;;;9.60;99.90;;;;;;5094906;28;20196;-69
2023/04/01 12:01:42;;;;;;;8.13;6.73;;;9.70;99.90;;;;;;5095424;28;20569;-69
2023/04/01 12:04:38;;;;;;;12.03;7.73;;;9.60;99.90;;;;;;5096199;28;20185;-69
2023/04/01 12:07:13;;;;;;;10.13;7.67;;;9.70;99.90;;;;;;5096439;28;20649;-69
2023/04/01 12:10:04;;;;;;;8.60;7.03;;;9.70;99.90;;;;;;5095909;28;20253;-69
2023/04/01 12:12:41;;;;;;;9.17;7.00;;;9.70;99.90;;;;;;5096658;28;20158;-70
2023/04/01 12:15:28;;;;;;;9.50;8.50;;;9.70;99.90;;;;;;5095853;28;20261;-69
2023/04/01 12:18:09;;;;;;;8.33;7.00;;;9.70;99.90;;;;;;5095821;28;20207;-69
2023/04/01 12:21:05;;;;;;;8.10;6.83;;;9.60;99.90;;;;;;5095557;28;20250;-69
2023/04/01 12:23:50;;;;;;;8.33;6.67;;;9.60;99.90;;;;;;5095715;28;20188;-69
2023/04/01 12:26:39;;;;;;;7.57;6.77;;;9.60;99.90;;;;;;5094364;28;20200;-69
2023/04/01 12:29:26;;;;;;;9.47;6.87;;;9.60;99.90;;;;;;5095958;28;20291;-69
2023/04/01 12:32:01;;;;;;;9.73;6.90;;;9.60;99.90;;;;;;5094442;28;20161;-69
2023/04/01 12:34:52;;;;;;;9.23;7.83;;;9.60;99.90;;;;;;5095557;28;20202;-69
2023/04/01 12:37:26;;;;;;;9.03;7.63;;;9.70;99.90;;;;;;5095792;28;20557;-69
2023/04/01 12:39:58;;;;;;;10.07;8.00;;;9.70;99.90;;;;;;5095505;28;20284;-69
2023/04/01 12:42:45;;;;;;;12.57;10.23;;;9.70;99.90;;;;;;5094083;28;20208;-69
2023/04/01 12:45:23;;;;;;;13.70;12.40;;;9.70;99.90;;;;;;5094248;28;20184;-69
2023/04/01 12:47:59;;;;;;;11.00;9.33;;;9.90;99.90;;;;;;5093904;28;20208;-69
2023/04/01 12:51:00;;;;;;;14.50;9.83;;;9.90;99.90;;;;;;5094949;28;20193;-69
2023/04/01 12:53:50;;;;;;;12.53;7.73;;;9.90;99.90;;;;;;5062809;28;20200;-69
2023/04/01 12:56:37;;;;;;;8.43;7.60;;;9.90;99.90;;;;;;5074913;28;20168;-72
2023/04/01 12:59:02;;;;;;;10.07;8.10;;;9.90;99.90;;;;;;5073649;28;20608;-75
2023/04/01 13:01:34;;;;;;;8.13;7.27;;;9.80;99.90;;;;;;5074574;28;20182;-72
2023/04/01 13:04:22;;;;;;;7.33;6.27;;;9.90;99.90;;;;;;5074627;28;20642;-72
2023/04/01 13:06:59;;;;;;;10.90;7.47;;;9.90;99.90;;;;;;5074919;28;20650;-70
2023/04/01 13:09:55;;;;;;;9.33;6.80;;;9.80;99.90;;;;;;5074653;28;20190;-72
2023/04/01 13:12:56;;;;;;;8.57;7.27;;;9.80;99.90;;;;;;5073395;28;20166;-72
2023/04/01 13:15:31;;;;;;;9.63;6.90;;;9.80;99.90;;;;;;5074567;28;20196;-72
2023/04/01 13:18:32;;;;;;;8.57;6.70;;;9.80;99.90;;;;;;5074438;28;20645;-72
2023/04/01 13:21:25;;;;;;;10.00;6.63;;;9.80;99.90;;;;;;5074410;28;20286;-72
2023/04/01 13:24:10;;;;;;;7.87;6.87;;;9.80;99.90;;;;;;5090999;28;20209;-72
2023/04/01 13:27:09;;;;;;;8.80;6.57;;;10.00;99.90;;;;;;5093035;28;20291;-72
2023/04/01 13:29:37;;;;;;;9.77;7.37;;;10.10;99.90;;;;;;5093028;28;20205;-72
2023/04/01 13:32:11;;;;;;;11.47;8.07;;;10.20;99.90;;;;;;5094305;28;20199;-72
2023/04/01 13:34:49;;;;;;;9.33;6.67;;;10.20;99.90;;;;;;5093590;28;20172;-71
2023/04/01 13:37:47;;;;;;;9.10;6.93;;;10.30;99.90;;;;;;5094366;28;20176;-71
2023/04/01 13:40:27;;;;;;;7.67;6.33;;;10.30;99.90;;;;;;5089518;28;20212;-68
2023/04/01 13:43:03;;;;;;;7.57;6.53;;;10.20;99.90;;;;;;5094713;28;20191;-72
2023/04/01 13:46:02;;;;;;;7.20;6.30;;;10.20;99.90;;;;;;5094978;28;20191;-72